Palmerston, Tasmania

3:46 PM AEDT on November 23, 2014 (GMT +1100)
Lower Coal Valley | Change Station
CLOSE
Current Station
Personal Weather Station
Location: Richmond, TASMANIA
Elevation: 85 ft
Nearby Weather Stations

Elev 85 ft 42.71 °S, 147.45 °E | Updated 3 seconds ago

Partly Cloudy
Partly Cloudy
79.9 °F
Feels Like 80 °F
N
9.8
Wind Variable Wind from East
Gusts 14.5 mph

Today
High -- | Low -- °F
--% Chance of Precip.
Yesterday
High -- | Low -- °F
Precip. -- in
5:31 AM 8:21 PM
New Moon, 1% visible
Pressure 29.77 in
Visibility 6.2 miles
Clouds Few 4500 ft
Heat Index 80 °F
Dew Point 51 °F
Humidity 36%
Rainfall 0.00 in
Snow Depth Not available.
UV 8 out of 12
Pollen Not available.
Air Quality Not available.
Flu Activity Not available.
METAR YMHB 230430Z 10010KT 9999 FEW045 21/10 Q1008

More Conditions Fewer Conditions

Pressure 29.77 in
Visibility 6.2 miles
Clouds Few 4500 ft
Heat Index 80 °F
Dew Point 51 °F
Humidity 36%
Rainfall 0.00 in
Snow Depth Not available.
UV 8 out of 12
Pollen Not available.
Air Quality Not available.
Flu Activity Not available.
METAR YMHB 230430Z 10010KT 9999 FEW045 21/10 Q1008

More Conditions Fewer Conditions

10-Day Weather Forecast

Almanac

Astronomy

Nov. 23, 2014 Rise Set
Actual Time
Civil Twilight
Nautical Twilight
Astronomical Twilight
Moon
Length of Visible Light
Length of Day
Tomorrow will be .
, % of the Moon is Illuminated

Today's Extremes

Country Highs Country Lows

Community

WunderPhotos

Upload Photos

1,773,003 photos uploaded!

WunderBlogs® & News

Nearby

Air Quality

  Air Quality AQ Index Pollutant
Not available.

Snow Depth

Station Depth Elevation

Earthquake Activity

City Distance Mag. Time & Date
Minimum magnitude displayed is 2.5.

Coastal Water Temperatures

Place Temperature

Nearby Weather Stations